createdAt,value
2022-11-21T00:01:25.272Z,96844.46
2022-11-21T00:03:53.850Z,96839.55
2022-11-21T00:06:23.772Z,96838.90
2022-11-21T00:08:52.488Z,96837.41
2022-11-21T00:11:20.343Z,96839.73
2022-11-21T00:13:48.335Z,96835.94
2022-11-21T00:16:16.664Z,96836.33
2022-11-21T00:18:44.761Z,96836.52
2022-11-21T00:21:18.336Z,96836.77
2022-11-21T00:23:47.331Z,96837.61
2022-11-21T00:26:17.613Z,96835.67
2022-11-21T00:28:46.111Z,96832.86
2022-11-21T00:31:24.252Z,96830.79
2022-11-21T00:33:52.358Z,96827.29
2022-11-21T00:36:20.334Z,96816.31
2022-11-21T00:38:48.332Z,96813.18
2022-11-21T00:41:16.310Z,96809.34
2022-11-21T00:43:44.294Z,96804.85
2022-11-21T00:46:12.414Z,96803.96
2022-11-21T00:48:40.619Z,96802.06
2022-11-21T00:51:08.688Z,96798.97
2022-11-21T00:53:36.499Z,96798.65
2022-11-21T00:56:04.851Z,96799.77
2022-11-21T00:58:33.061Z,96799.67
2022-11-21T01:01:07.844Z,96801.32
2022-11-21T01:03:37.066Z,96800.36
2022-11-21T01:06:13.414Z,96798.00
2022-11-21T01:08:43.787Z,96795.23
2022-11-21T01:11:17.679Z,96795.81
2022-11-21T01:13:46.376Z,96793.87
2022-11-21T01:16:15.955Z,96790.77
2022-11-21T01:18:44.111Z,96785.59
2022-11-21T01:21:15.070Z,96773.84
2022-11-21T01:23:43.493Z,96768.26
2022-11-21T01:26:16.992Z,96770.46
2022-11-21T01:28:45.562Z,96775.02
2022-11-21T01:31:16.708Z,96782.79
2022-11-21T01:33:45.329Z,96779.20
2022-11-21T01:36:20.028Z,96770.14
2022-11-21T01:38:50.153Z,96762.13
2022-11-21T01:41:39.810Z,96751.70
2022-11-21T01:44:23.508Z,96749.63
2022-11-21T01:46:52.645Z,96743.40
2022-11-21T01:49:22.571Z,96738.95
2022-11-21T01:52:19.905Z,96737.70
2022-11-21T01:55:10.156Z,96736.35
2022-11-21T01:57:43.375Z,96735.80
2022-11-21T02:00:16.412Z,96732.52
2022-11-21T02:02:49.060Z,96727.84
2022-11-21T02:05:22.519Z,96721.55
2022-11-21T02:07:54.339Z,96712.52
2022-11-21T02:10:23.140Z,96708.39
2022-11-21T02:12:53.663Z,96709.13
2022-11-21T02:15:27.232Z,96705.31
2022-11-21T02:17:55.880Z,96703.40
2022-11-21T02:20:26.760Z,96700.33
2022-11-21T02:23:31.255Z,96694.83
2022-11-21T02:25:59.736Z,96692.48
2022-11-21T02:28:28.170Z,96685.21
2022-11-21T02:30:56.355Z,96678.90
2022-11-21T02:33:24.230Z,96675.66
2022-11-21T02:36:00.736Z,96674.33
2022-11-21T02:38:38.996Z,96672.10
2022-11-21T02:41:17.038Z,96670.92
2022-11-21T02:43:50.841Z,96666.45
2022-11-21T02:46:18.864Z,96661.27
2022-11-21T02:48:47.198Z,96655.23
2022-11-21T02:51:15.210Z,96655.80
2022-11-21T02:53:43.031Z,96653.60
2022-11-21T02:56:10.943Z,96644.42
2022-11-21T02:58:39.141Z,96636.95
2022-11-21T03:01:07.207Z,96631.25
2022-11-21T03:03:35.258Z,96623.48
2022-11-21T03:06:03.230Z,96618.36
2022-11-21T03:08:31.262Z,96618.37
2022-11-21T03:10:59.610Z,96618.71
2022-11-21T03:13:27.505Z,96620.52
2022-11-21T03:15:55.613Z,96622.08
2022-11-21T03:18:23.929Z,96623.19
2022-11-21T03:20:52.926Z,96621.98
2022-11-21T03:23:20.822Z,96617.38
2022-11-21T03:25:48.720Z,96609.98
2022-11-21T03:28:16.843Z,96605.44
2022-11-21T03:30:44.883Z,96602.48
2022-11-21T03:33:12.774Z,96600.23
2022-11-21T03:35:40.589Z,96594.89
2022-11-21T03:38:08.719Z,96589.02
2022-11-21T03:40:36.632Z,96588.80
2022-11-21T03:43:06.157Z,96589.29
2022-11-21T03:45:34.152Z,96586.24
2022-11-21T03:48:02.066Z,96580.73
2022-11-21T03:50:30.042Z,96581.45
2022-11-21T03:52:57.969Z,96581.12
2022-11-21T03:55:26.013Z,96576.23
2022-11-21T03:57:54.000Z,96571.59
2022-11-21T04:00:22.913Z,96570.16
2022-11-21T04:02:50.921Z,96565.70
2022-11-21T04:05:18.945Z,96570.80
2022-11-21T04:07:47.016Z,96573.37
2022-11-21T04:10:15.466Z,96572.69
2022-11-21T04:12:43.339Z,96572.34
2022-11-21T04:15:13.891Z,96570.61
2022-11-21T04:17:42.238Z,96569.71
2022-11-21T04:20:11.147Z,96568.30
2022-11-21T04:22:39.145Z,96568.48
2022-11-21T04:25:07.769Z,96564.13
2022-11-21T04:27:35.823Z,96562.07
2022-11-21T04:30:04.274Z,96561.77
2022-11-21T04:32:32.833Z,96560.45
2022-11-21T04:35:01.852Z,96559.48
2022-11-21T04:37:29.873Z,96561.10
2022-11-21T04:39:57.896Z,96558.87
2022-11-21T04:42:25.843Z,96555.43
2022-11-21T04:44:53.828Z,96557.35
2022-11-21T04:47:21.775Z,96552.23
2022-11-21T04:49:49.705Z,96545.17
2022-11-21T04:52:17.700Z,96544.81
2022-11-21T04:54:45.676Z,96546.04
2022-11-21T04:57:13.801Z,96542.95
2022-11-21T04:59:41.639Z,96541.95
2022-11-21T05:02:10.003Z,96541.50
2022-11-21T05:04:38.192Z,96531.15
2022-11-21T05:07:06.726Z,96525.30
2022-11-21T05:09:34.709Z,96525.92
2022-11-21T05:12:22.374Z,96527.64
2022-11-21T05:14:50.658Z,96533.53
2022-11-21T05:17:18.497Z,96529.09
2022-11-21T05:19:46.631Z,96527.89
2022-11-21T05:22:14.812Z,96529.23
2022-11-21T05:24:42.840Z,96526.05
2022-11-21T05:27:11.110Z,96527.61
2022-11-21T05:29:39.118Z,96533.63
2022-11-21T05:32:07.204Z,96532.42
2022-11-21T05:34:35.490Z,96534.65
2022-11-21T05:37:03.756Z,96534.29
2022-11-21T05:39:31.682Z,96529.67
2022-11-21T05:42:02.890Z,96529.90
2022-11-21T05:44:31.620Z,96527.69
2022-11-21T05:46:59.896Z,96528.05
2022-11-21T05:49:27.978Z,96526.13
2022-11-21T05:51:56.382Z,96518.86
2022-11-21T05:54:25.017Z,96516.81
2022-11-21T05:56:53.237Z,96525.13
2022-11-21T05:59:21.363Z,96531.35
2022-11-21T06:02:08.262Z,96535.01
2022-11-21T06:04:36.530Z,96539.07
2022-11-21T06:07:06.103Z,96539.98
2022-11-21T06:09:34.246Z,96537.61
2022-11-21T06:12:02.092Z,96537.14
2022-11-21T06:14:30.339Z,96539.92
2022-11-21T06:16:58.604Z,96542.84
2022-11-21T06:19:26.703Z,96546.41
2022-11-21T06:21:54.732Z,96547.46
2022-11-21T06:24:22.668Z,96549.55
2022-11-21T06:26:50.687Z,96551.52
2022-11-21T06:29:22.316Z,96549.20
2022-11-21T06:31:51.118Z,96549.58
2022-11-21T06:34:19.134Z,96546.59
2022-11-21T06:36:47.258Z,96547.81
2022-11-21T06:39:15.238Z,96550.77
2022-11-21T06:41:43.242Z,96550.98
2022-11-21T06:44:11.588Z,96551.90
2022-11-21T06:46:39.757Z,96547.27
2022-11-21T06:49:07.889Z,96550.55
2022-11-21T06:51:35.806Z,96545.94
2022-11-21T06:54:03.936Z,96550.20
2022-11-21T06:56:32.444Z,96544.61
2022-11-21T06:59:00.670Z,96543.95
2022-11-21T07:01:28.678Z,96548.45
2022-11-21T07:03:56.887Z,96548.55
2022-11-21T07:06:25.283Z,96546.79
2022-11-21T07:11:43.323Z,96556.43
2022-11-21T07:14:11.902Z,96558.05
2022-11-21T07:16:39.890Z,96561.00
2022-11-21T07:19:07.946Z,96556.80
2022-11-21T07:21:35.903Z,96554.66
2022-11-21T07:24:04.254Z,96553.24
2022-11-21T07:26:32.348Z,96556.45
2022-11-21T07:29:00.453Z,96559.52
2022-11-21T07:31:28.384Z,96558.23
2022-11-21T07:33:56.295Z,96556.59
2022-11-21T07:36:24.601Z,96559.67
2022-11-21T07:38:53.023Z,96556.65
2022-11-21T07:41:21.865Z,96550.55
2022-11-21T07:43:50.271Z,96547.73
2022-11-21T07:46:18.726Z,96550.63
2022-11-21T07:48:47.236Z,96552.19
2022-11-21T07:51:15.959Z,96553.89
2022-11-21T07:53:44.113Z,96557.03
2022-11-21T07:56:12.326Z,96556.98
2022-11-21T07:58:40.865Z,96556.21
2022-11-21T08:01:09.249Z,96558.76
2022-11-21T08:03:37.410Z,96560.77
2022-11-21T08:06:05.517Z,96556.91
2022-11-21T08:08:33.812Z,96559.41
2022-11-21T08:11:05.965Z,96561.63
2022-11-21T08:13:35.176Z,96563.09
2022-11-21T08:16:05.547Z,96561.31
2022-11-21T08:18:34.166Z,96562.70
2022-11-21T08:21:05.218Z,96563.95
2022-11-21T08:23:34.421Z,96562.13
2022-11-21T08:26:03.096Z,96559.07
2022-11-21T08:28:31.268Z,96557.16
2022-11-21T08:30:59.399Z,96552.29
2022-11-21T08:33:28.217Z,96548.40
2022-11-21T08:35:56.742Z,96548.45
2022-11-21T08:38:25.302Z,96553.52
2022-11-21T08:41:17.659Z,96551.32
2022-11-21T08:43:46.145Z,96551.65
2022-11-21T08:46:14.524Z,96547.38
2022-11-21T08:48:42.868Z,96546.42
2022-11-21T08:51:11.108Z,96545.39
2022-11-21T08:53:39.369Z,96545.59
2022-11-21T08:56:07.538Z,96546.61
2022-11-21T08:58:37.633Z,96549.52
2022-11-21T09:01:09.318Z,96545.31
2022-11-21T09:03:37.865Z,96544.04
2022-11-21T09:06:06.492Z,96546.36
2022-11-21T09:08:34.868Z,96545.30
2022-11-21T09:11:07.969Z,96548.36
2022-11-21T09:13:37.347Z,96549.52
2022-11-21T09:16:24.183Z,96549.27
2022-11-21T09:18:53.585Z,96552.30
2022-11-21T09:21:23.789Z,96551.06
2022-11-21T09:23:52.192Z,96546.09
2022-11-21T09:26:20.224Z,96543.23
2022-11-21T09:28:48.303Z,96544.11
2022-11-21T09:31:16.373Z,96542.14
2022-11-21T09:33:44.460Z,96545.73
2022-11-21T09:36:12.440Z,96545.87
2022-11-21T09:38:40.492Z,96543.95
2022-11-21T09:41:53.285Z,96542.63
2022-11-21T09:44:47.297Z,96540.73
2022-11-21T09:47:24.560Z,96540.09
2022-11-21T09:50:00.238Z,96540.13
2022-11-21T09:52:32.720Z,96541.10
2022-11-21T09:55:06.050Z,96538.40
2022-11-21T09:57:36.335Z,96538.18
2022-11-21T10:00:15.703Z,96534.30
2022-11-21T10:02:44.315Z,96535.16
2022-11-21T10:05:14.622Z,96541.15
2022-11-21T10:07:44.833Z,96545.95
2022-11-21T10:10:35.903Z,96550.90
2022-11-21T10:13:19.536Z,96552.80
2022-11-21T10:16:01.224Z,96554.71
2022-11-21T10:18:38.726Z,96556.57
2022-11-21T10:21:15.622Z,96556.13
2022-11-21T10:24:03.003Z,96550.49
2022-11-21T10:26:52.269Z,96552.12
2022-11-21T10:29:36.456Z,96551.67
2022-11-21T10:32:30.537Z,96549.15
2022-11-21T10:35:12.341Z,96552.73
2022-11-21T10:38:11.133Z,96550.67
2022-11-21T10:40:47.633Z,96551.42
2022-11-21T10:43:43.499Z,96555.11
2022-11-21T10:46:11.727Z,96556.35
2022-11-21T10:48:40.261Z,96552.25
2022-11-21T10:52:10.276Z,96551.76
2022-11-21T10:55:03.676Z,96552.95
2022-11-21T10:57:39.691Z,96553.52
2022-11-21T11:00:15.932Z,96550.04
2022-11-21T11:03:07.843Z,96549.30
2022-11-21T11:05:38.069Z,96546.98
2022-11-21T11:08:11.941Z,96543.57
2022-11-21T11:11:04.674Z,96541.33
2022-11-21T11:13:53.374Z,96535.61
2022-11-21T11:16:22.651Z,96527.02
2022-11-21T11:18:57.039Z,96528.25
2022-11-21T11:21:41.711Z,96528.45
2022-11-21T11:24:09.921Z,96528.79
2022-11-21T11:26:48.606Z,96528.48
2022-11-21T11:29:24.981Z,96527.04
2022-11-21T11:32:01.357Z,96526.34
2022-11-21T11:34:35.941Z,96521.33
2022-11-21T11:37:19.738Z,96521.64
2022-11-21T11:40:06.314Z,96523.27
2022-11-21T11:43:26.005Z,96525.40
2022-11-21T11:46:25.514Z,96527.44
2022-11-21T11:49:19.614Z,96527.42
2022-11-21T11:51:55.711Z,96527.19
2022-11-21T11:54:42.395Z,96525.96
2022-11-21T11:57:10.848Z,96522.42
2022-11-21T11:59:44.971Z,96523.29
2022-11-21T12:02:29.420Z,96525.91
2022-11-21T12:05:07.527Z,96530.90
2022-11-21T12:11:01.471Z,96526.14
2022-11-21T12:13:31.849Z,96528.64
2022-11-21T12:16:11.820Z,96530.16
2022-11-21T12:18:44.587Z,96532.50
2022-11-21T12:21:16.245Z,96531.30
2022-11-21T12:23:55.490Z,96527.11
2022-11-21T12:27:05.790Z,96526.12
2022-11-21T12:29:37.030Z,96527.11
2022-11-21T12:32:49.995Z,96519.73
2022-11-21T12:36:04.846Z,96518.89
2022-11-21T12:39:18.972Z,96519.30
2022-11-21T12:42:17.104Z,96517.43
2022-11-21T12:45:00.528Z,96509.97
2022-11-21T12:48:09.587Z,96509.73
2022-11-21T12:51:07.959Z,96511.13
2022-11-21T12:54:15.457Z,96510.85
2022-11-21T12:56:52.365Z,96513.67
2022-11-21T12:59:20.572Z,96515.67
2022-11-21T13:02:01.013Z,96524.05
2022-11-21T13:04:35.499Z,96527.68
2022-11-21T13:07:04.819Z,96530.63
2022-11-21T13:09:48.566Z,96532.00
2022-11-21T13:12:26.085Z,96531.52
2022-11-21T13:15:06.425Z,96526.99
2022-11-21T13:17:51.459Z,96532.26
2022-11-21T13:20:22.859Z,96530.86
2022-11-21T13:22:54.675Z,96530.27
2022-11-21T13:25:32.448Z,96528.21
2022-11-21T13:28:13.369Z,96518.25
2022-11-21T13:30:55.689Z,96526.58
2022-11-21T13:33:36.457Z,96529.73
2022-11-21T13:36:10.675Z,96531.77
2022-11-21T13:39:25.716Z,96530.05
2022-11-21T13:42:20.972Z,96531.48
2022-11-21T13:44:50.322Z,96531.95
2022-11-21T13:47:47.746Z,96527.92
2022-11-21T13:50:54.412Z,96531.70
2022-11-21T13:53:22.778Z,96531.76
2022-11-21T13:56:04.135Z,96538.16
2022-11-21T13:58:51.459Z,96543.13
2022-11-21T14:01:51.330Z,96553.84
2022-11-21T14:04:20.022Z,96559.95
2022-11-21T14:06:48.798Z,96559.46
2022-11-21T14:09:27.942Z,96562.05
2022-11-21T14:12:01.323Z,96564.95
2022-11-21T14:14:41.145Z,96569.02
2022-11-21T14:17:47.827Z,96566.74
2022-11-21T14:20:27.770Z,96563.61
2022-11-21T14:23:15.975Z,96568.03
2022-11-21T14:25:54.350Z,96570.55
2022-11-21T14:28:27.187Z,96573.36
2022-11-21T14:31:00.907Z,96576.83
2022-11-21T14:33:34.430Z,96581.42
2022-11-21T14:36:21.502Z,96585.96
2022-11-21T14:41:51.856Z,96591.62
2022-11-21T14:44:22.609Z,96588.46
2022-11-21T14:47:03.216Z,96593.90
2022-11-21T14:49:31.963Z,96600.45
2022-11-21T14:52:03.428Z,96607.31
2022-11-21T14:57:45.454Z,96626.44
2022-11-21T15:00:51.488Z,96632.96
2022-11-21T15:03:22.805Z,96632.80
2022-11-21T15:06:06.174Z,96633.27
2022-11-21T15:11:38.354Z,96635.43
2022-11-21T15:14:27.424Z,96632.84
2022-11-21T15:16:58.799Z,96632.84
2022-11-21T15:19:33.244Z,96638.14
2022-11-21T15:22:04.957Z,96639.80
2022-11-21T15:24:43.196Z,96639.59
2022-11-21T15:27:32.846Z,96639.95
2022-11-21T15:30:07.290Z,96641.98
2022-11-21T15:33:01.403Z,96645.10
2022-11-21T15:35:38.410Z,96648.52
2022-11-21T15:38:27.014Z,96650.45
2022-11-21T15:41:15.685Z,96651.66
2022-11-21T15:43:51.393Z,96651.66
2022-11-21T15:46:30.135Z,96648.73
2022-11-21T15:49:30.870Z,96640.55
2022-11-21T15:52:06.981Z,96645.63
2022-11-21T15:54:36.171Z,96646.56
2022-11-21T15:57:04.578Z,96647.03
2022-11-21T15:59:36.755Z,96647.76
2022-11-21T16:02:05.800Z,96656.14
2022-11-21T16:04:35.488Z,96659.64
2022-11-21T16:07:04.022Z,96653.42
2022-11-21T16:09:33.309Z,96658.45
2022-11-21T16:12:01.655Z,96665.05
2022-11-21T16:14:30.028Z,96664.74
2022-11-21T16:16:59.170Z,96661.27
2022-11-21T16:19:27.814Z,96660.54
2022-11-21T16:21:56.723Z,96660.35
2022-11-21T16:24:27.815Z,96665.93
2022-11-21T16:26:57.525Z,96666.34
2022-11-21T16:29:26.064Z,96668.27
2022-11-21T16:31:56.525Z,96671.41
2022-11-21T16:34:26.203Z,96673.17
2022-11-21T16:36:55.389Z,96672.61
2022-11-21T16:39:24.861Z,96673.70
2022-11-21T16:41:53.890Z,96680.11
2022-11-21T16:44:22.226Z,96684.80
2022-11-21T16:46:54.523Z,96686.89
2022-11-21T16:49:24.772Z,96686.54
2022-11-21T16:51:53.165Z,96690.52
2022-11-21T16:54:21.371Z,96688.69
2022-11-21T16:56:49.608Z,96689.39
2022-11-21T16:59:18.076Z,96690.63
2022-11-21T17:01:47.370Z,96695.53
2022-11-21T17:04:17.488Z,96698.49
2022-11-21T17:06:49.082Z,96702.54
2022-11-21T17:09:17.670Z,96704.37
2022-11-21T17:11:46.066Z,96710.05
2022-11-21T17:14:15.075Z,96712.59
2022-11-21T17:16:43.502Z,96716.71
2022-11-21T17:19:12.728Z,96722.53
2022-11-21T17:21:41.727Z,96725.38
2022-11-21T17:24:13.610Z,96728.92
2022-11-21T17:26:41.884Z,96734.71
2022-11-21T17:29:10.819Z,96737.55
2022-11-21T17:31:41.997Z,96736.21
2022-11-21T17:34:10.367Z,96735.60
2022-11-21T17:36:38.631Z,96738.09
2022-11-21T17:39:06.984Z,96736.21
2022-11-21T17:41:35.150Z,96736.60
2022-11-21T17:44:03.257Z,96738.03
2022-11-21T17:46:32.114Z,96738.95
2022-11-21T17:49:03.011Z,96742.13
2022-11-21T17:51:34.534Z,96739.42
2022-11-21T17:54:03.648Z,96740.70
2022-11-21T17:56:33.804Z,96748.02
2022-11-21T17:59:02.725Z,96756.38
2022-11-21T18:01:32.016Z,96754.73
2022-11-21T18:04:11.674Z,96756.70
2022-11-21T18:06:41.800Z,96757.45
2022-11-21T18:09:11.960Z,96754.91
2022-11-21T18:11:40.927Z,96751.82
2022-11-21T18:14:10.953Z,96754.44
2022-11-21T18:16:39.788Z,96762.57
2022-11-21T18:19:13.454Z,96771.39
2022-11-21T18:21:42.645Z,96772.09
2022-11-21T18:24:10.779Z,96771.57
2022-11-21T18:26:39.429Z,96769.33
2022-11-21T18:31:59.043Z,96775.21
2022-11-21T18:34:27.204Z,96780.76
2022-11-21T18:36:55.617Z,96783.52
2022-11-21T18:39:25.306Z,96785.75
2022-11-21T18:41:53.570Z,96787.66
2022-11-21T18:44:22.763Z,96783.52
2022-11-21T18:46:51.370Z,96783.89
2022-11-21T18:49:19.651Z,96780.61
2022-11-21T18:51:48.535Z,96778.55
2022-11-21T18:54:17.126Z,96778.86
2022-11-21T18:56:45.343Z,96778.30
2022-11-21T18:59:13.391Z,96779.81
2022-11-21T19:01:42.145Z,96779.09
2022-11-21T19:04:10.543Z,96780.98
2022-11-21T19:06:38.820Z,96779.05
2022-11-21T19:09:08.296Z,96781.30
2022-11-21T19:11:36.345Z,96778.88
2022-11-21T19:14:04.917Z,96778.66
2022-11-21T19:16:34.899Z,96781.19
2022-11-21T19:19:33.603Z,96781.84
2022-11-21T19:21:59.431Z,96785.27
2022-11-21T19:24:27.482Z,96785.28
2022-11-21T19:26:55.420Z,96790.14
2022-11-21T19:29:23.441Z,96795.48
2022-11-21T19:31:51.437Z,96797.73
2022-11-21T19:34:19.511Z,96799.50
2022-11-21T19:36:47.728Z,96801.57
2022-11-21T19:39:17.626Z,96803.64
2022-11-21T19:41:49.214Z,96808.11
2022-11-21T19:44:17.577Z,96811.55
2022-11-21T19:46:45.580Z,96812.75
2022-11-21T19:49:14.237Z,96815.82
2022-11-21T19:51:42.431Z,96818.92
2022-11-21T19:54:13.061Z,96820.30
2022-11-21T19:56:41.277Z,96818.23
2022-11-21T19:59:13.624Z,96819.27
2022-11-21T20:01:42.257Z,96823.62
2022-11-21T20:04:11.666Z,96822.45
2022-11-21T20:06:43.127Z,96816.57
2022-11-21T20:09:14.768Z,96822.95
2022-11-21T20:11:45.176Z,96824.36
2022-11-21T20:14:21.059Z,96828.70
2022-11-21T20:16:51.645Z,96833.16
2022-11-21T20:19:22.631Z,96839.55
2022-11-21T20:21:51.399Z,96838.48
2022-11-21T20:24:19.501Z,96835.52
2022-11-21T20:26:47.790Z,96835.48
2022-11-21T20:29:16.336Z,96838.59
2022-11-21T20:31:44.717Z,96844.11
2022-11-21T20:34:13.435Z,96845.98
2022-11-21T20:36:41.948Z,96850.79
2022-11-21T20:39:17.920Z,96852.52
2022-11-21T20:41:47.238Z,96852.52
2022-11-21T20:47:09.747Z,96858.76
2022-11-21T20:49:38.054Z,96860.38
2022-11-21T20:54:54.752Z,96867.19
2022-11-21T20:57:22.982Z,96870.35
2022-11-21T20:59:51.422Z,96869.20
2022-11-21T21:02:20.299Z,96867.33
2022-11-21T21:04:48.626Z,96869.08
2022-11-21T21:07:17.154Z,96871.84
2022-11-21T21:09:45.144Z,96869.41
2022-11-21T21:12:13.016Z,96868.55
2022-11-21T21:14:40.948Z,96868.02
2022-11-21T21:17:08.952Z,96869.55
2022-11-21T21:19:36.937Z,96871.61
2022-11-21T21:22:05.137Z,96875.59
2022-11-21T21:24:33.194Z,96877.15
2022-11-21T21:27:01.210Z,96879.39
2022-11-21T21:29:29.662Z,96880.27
2022-11-21T21:31:58.616Z,96882.89
2022-11-21T21:34:26.926Z,96883.42
2022-11-21T21:36:54.940Z,96882.91
2022-11-21T21:39:22.949Z,96885.19
2022-11-21T21:41:50.878Z,96888.33
2022-11-21T21:44:20.399Z,96885.39
2022-11-21T21:46:48.504Z,96883.69
2022-11-21T21:49:16.827Z,96886.13
2022-11-21T21:51:45.307Z,96881.81
2022-11-21T21:54:19.873Z,96883.20
2022-11-21T21:56:48.630Z,96887.52
2022-11-21T21:59:18.373Z,96892.38
2022-11-21T22:01:47.078Z,96894.09
2022-11-21T22:04:15.210Z,96900.63
2022-11-21T22:06:43.289Z,96901.29
2022-11-21T22:09:11.754Z,96889.54
2022-11-21T22:11:39.755Z,96901.21
2022-11-21T22:14:14.997Z,96909.12
2022-11-21T22:16:44.218Z,96908.75
2022-11-21T22:19:12.354Z,96910.63
2022-11-21T22:21:40.474Z,96910.46
2022-11-21T22:24:29.831Z,96903.89
2022-11-21T22:26:58.119Z,96901.50
2022-11-21T22:29:26.129Z,96903.44
2022-11-21T22:31:54.127Z,96904.84
2022-11-21T22:34:22.788Z,96905.34
2022-11-21T22:36:50.819Z,96903.45
2022-11-21T22:39:18.877Z,96906.21
2022-11-21T22:41:46.922Z,96902.39
2022-11-21T22:44:14.971Z,96902.05
2022-11-21T22:46:43.216Z,96904.27
2022-11-21T22:49:11.273Z,96906.00
2022-11-21T22:51:39.282Z,96903.59
2022-11-21T22:54:07.480Z,96902.23
2022-11-21T22:56:35.687Z,96900.00
2022-11-21T22:59:03.923Z,96897.45
2022-11-21T23:01:34.429Z,96894.25
2022-11-21T23:04:03.321Z,96889.45
2022-11-21T23:06:31.350Z,96895.54
2022-11-21T23:08:59.305Z,96896.95
2022-11-21T23:11:36.392Z,96898.72
2022-11-21T23:14:08.732Z,96899.42
2022-11-21T23:16:37.113Z,96899.80
2022-11-21T23:19:05.351Z,96899.81
2022-11-21T23:21:33.448Z,96900.85
2022-11-21T23:24:01.569Z,96897.92
2022-11-21T23:26:29.804Z,96899.14
2022-11-21T23:28:57.784Z,96896.54
2022-11-21T23:31:25.639Z,96897.05
2022-11-21T23:33:53.542Z,96902.90
2022-11-21T23:36:21.504Z,96909.27
2022-11-21T23:38:49.533Z,96908.04
2022-11-21T23:41:17.530Z,96908.90
2022-11-21T23:43:45.631Z,96902.49
2022-11-21T23:46:13.558Z,96899.38
2022-11-21T23:48:41.566Z,96900.40
2022-11-21T23:51:09.621Z,96896.95
2022-11-21T23:53:37.668Z,96895.20
2022-11-21T23:56:05.967Z,96896.73
2022-11-21T23:58:34.154Z,96895.67
